createdAt,value
2022-12-11T00:00:48.202Z,12.13
2022-12-11T00:03:17.154Z,11.52
2022-12-11T00:05:44.590Z,11.23
2022-12-11T00:08:11.823Z,10.90
2022-12-11T00:10:38.410Z,11.18
2022-12-11T00:13:05.438Z,10.25
2022-12-11T00:15:32.046Z,9.65
2022-12-11T00:17:58.501Z,10.50
2022-12-11T00:20:24.955Z,10.18
2022-12-11T00:22:51.355Z,9.73
2022-12-11T00:25:17.985Z,11.35
2022-12-11T00:27:46.667Z,11.68
2022-12-11T00:30:14.013Z,10.77
2022-12-11T00:32:40.622Z,10.88
2022-12-11T00:35:07.385Z,10.85
2022-12-11T00:37:33.989Z,10.95
2022-12-11T00:40:00.499Z,11.80
2022-12-11T00:42:26.909Z,10.73
2022-12-11T00:44:54.844Z,10.98
2022-12-11T00:47:21.263Z,10.27
2022-12-11T00:49:49.957Z,10.23
2022-12-11T00:52:17.784Z,10.82
2022-12-11T00:54:44.561Z,10.80
2022-12-11T00:57:10.982Z,10.70
2022-12-11T00:59:37.551Z,9.65
2022-12-11T01:02:03.951Z,11.65
2022-12-11T01:04:30.427Z,11.50
2022-12-11T01:06:56.896Z,11.57
2022-12-11T01:09:41.934Z,11.30
2022-12-11T01:12:08.410Z,10.38
2022-12-11T01:14:34.840Z,11.88
2022-12-11T01:17:01.411Z,12.10
2022-12-11T01:19:28.520Z,11.00
2022-12-11T01:21:55.006Z,11.43
2022-12-11T01:24:21.490Z,11.88
2022-12-11T01:26:47.908Z,10.88
2022-12-11T01:29:15.275Z,11.55
2022-12-11T01:31:41.702Z,11.73
2022-12-11T01:34:08.139Z,11.73
2022-12-11T01:36:34.535Z,11.73
2022-12-11T01:39:01.035Z,11.38
2022-12-11T01:41:27.573Z,10.73
2022-12-11T01:44:27.447Z,11.98
2022-12-11T01:46:54.250Z,10.88
2022-12-11T01:49:25.847Z,10.20
2022-12-11T01:54:21.585Z,11.05
2022-12-11T01:56:51.687Z,10.93
2022-12-11T01:59:24.404Z,11.60
2022-12-11T02:02:06.438Z,11.40
2022-12-11T02:07:01.219Z,10.18
2022-12-11T02:09:33.419Z,11.15
2022-12-11T02:12:09.050Z,10.38
2022-12-11T02:14:55.171Z,11.63
2022-12-11T02:17:38.539Z,9.80
2022-12-11T02:20:16.568Z,9.00
2022-12-11T02:23:06.028Z,9.13
2022-12-11T02:25:44.264Z,10.18
2022-12-11T02:28:32.185Z,10.57
2022-12-11T02:31:27.659Z,12.25
2022-12-11T02:34:06.316Z,10.45
2022-12-11T02:36:37.992Z,10.75
2022-12-11T02:41:33.692Z,9.77
2022-12-11T02:44:02.991Z,10.57
2022-12-11T02:46:31.283Z,9.30
2022-12-11T02:48:58.378Z,10.48
2022-12-11T02:51:31.129Z,9.98
2022-12-11T02:53:59.442Z,10.00
2022-12-11T02:56:50.236Z,10.95
2022-12-11T02:59:26.133Z,10.38
2022-12-11T03:01:52.641Z,9.85
2022-12-11T03:04:19.146Z,9.45
2022-12-11T03:06:54.252Z,12.00
2022-12-11T03:09:21.111Z,11.77
2022-12-11T03:11:47.710Z,10.40
2022-12-11T03:14:14.307Z,10.90
2022-12-11T03:17:14.238Z,10.88
2022-12-11T03:19:43.550Z,9.13
2022-12-11T03:22:22.649Z,10.07
2022-12-11T03:25:01.800Z,10.45
2022-12-11T03:27:36.587Z,10.32
2022-12-11T03:30:16.350Z,9.57
2022-12-11T03:32:53.644Z,9.93
2022-12-11T03:35:33.075Z,9.10
2022-12-11T03:38:06.695Z,10.05
2022-12-11T03:40:35.589Z,9.82
2022-12-11T03:43:04.920Z,8.55
2022-12-11T03:45:33.973Z,9.27
2022-12-11T03:48:02.634Z,10.18
2022-12-11T03:50:32.065Z,10.32
2022-12-11T03:53:00.364Z,9.50
2022-12-11T03:55:29.287Z,9.30
2022-12-11T03:57:56.032Z,9.93
2022-12-11T04:00:23.309Z,8.32
2022-12-11T04:03:13.690Z,9.60
2022-12-11T04:05:42.000Z,8.50
2022-12-11T04:08:08.693Z,9.68
2022-12-11T04:10:35.108Z,10.13
2022-12-11T04:13:01.620Z,10.00
2022-12-11T04:15:28.111Z,11.88
2022-12-11T04:18:12.892Z,11.75
2022-12-11T04:20:57.825Z,9.38
2022-12-11T04:23:43.144Z,10.52
2022-12-11T04:26:15.567Z,9.40
2022-12-11T04:28:43.481Z,8.88
2022-12-11T04:31:18.967Z,9.35
2022-12-11T04:33:45.568Z,11.18
2022-12-11T04:36:12.924Z,9.88
2022-12-11T04:38:39.401Z,10.45
2022-12-11T04:41:14.139Z,9.27
2022-12-11T04:43:40.676Z,9.73
2022-12-11T04:46:08.214Z,10.00
2022-12-11T04:48:35.371Z,9.13
2022-12-11T04:51:02.020Z,10.05
2022-12-11T04:53:28.818Z,10.90
2022-12-11T04:55:55.899Z,8.07
2022-12-11T04:58:22.947Z,9.32
2022-12-11T05:00:49.508Z,9.43
2022-12-11T05:03:16.431Z,10.30
2022-12-11T05:05:51.929Z,9.80
2022-12-11T05:08:21.486Z,9.52
2022-12-11T05:10:59.350Z,9.82
2022-12-11T05:13:27.176Z,9.25
2022-12-11T05:15:53.671Z,8.63
2022-12-11T05:18:20.231Z,9.95
2022-12-11T05:20:55.753Z,9.38
2022-12-11T05:23:22.326Z,9.25
2022-12-11T05:26:01.898Z,9.00
2022-12-11T05:28:30.211Z,9.30
2022-12-11T05:31:01.528Z,9.25
2022-12-11T05:33:29.970Z,8.23
2022-12-11T05:35:56.942Z,9.15
2022-12-11T05:38:23.927Z,8.10
2022-12-11T05:40:58.929Z,8.98
2022-12-11T05:43:27.117Z,8.27
2022-12-11T05:45:54.203Z,8.20
2022-12-11T05:48:20.644Z,9.32
2022-12-11T05:51:00.943Z,8.48
2022-12-11T05:53:28.354Z,9.60
2022-12-11T05:55:55.343Z,9.13
2022-12-11T05:58:21.807Z,10.50
2022-12-11T06:00:48.425Z,10.88
2022-12-11T06:03:15.456Z,8.32
2022-12-11T06:05:43.219Z,9.55
2022-12-11T06:08:09.950Z,9.10
2022-12-11T06:10:36.472Z,9.57
2022-12-11T06:13:03.171Z,9.48
2022-12-11T06:15:29.687Z,10.85
2022-12-11T06:17:56.191Z,8.27
2022-12-11T06:20:22.675Z,10.88
2022-12-11T06:22:49.167Z,10.15
2022-12-11T06:25:15.619Z,11.55
2022-12-11T06:27:42.057Z,12.18
2022-12-11T06:30:09.080Z,11.32
2022-12-11T06:32:35.467Z,11.32
2022-12-11T06:35:01.867Z,12.90
2022-12-11T06:37:28.323Z,12.65
2022-12-11T06:39:54.743Z,12.80
2022-12-11T06:42:21.161Z,12.80
2022-12-11T06:44:47.955Z,14.38
2022-12-11T06:47:14.391Z,15.52
2022-12-11T06:49:40.841Z,14.27
2022-12-11T06:52:07.248Z,17.75
2022-12-11T06:54:33.749Z,17.10
2022-12-11T06:57:00.208Z,17.33
2022-12-11T06:59:26.629Z,16.40
2022-12-11T07:01:53.092Z,17.98
2022-12-11T07:04:19.659Z,16.88
2022-12-11T07:06:47.367Z,18.27
2022-12-11T07:09:13.737Z,15.18
2022-12-11T07:11:40.191Z,14.80
2022-12-11T07:14:06.747Z,16.83
2022-12-11T07:16:33.389Z,15.85
2022-12-11T07:19:00.337Z,15.82
2022-12-11T07:21:26.775Z,14.90
2022-12-11T07:23:53.264Z,16.08
2022-12-11T07:26:21.986Z,14.73
2022-12-11T07:28:48.815Z,17.08
2022-12-11T07:31:21.870Z,16.80
2022-12-11T07:33:52.403Z,16.85
2022-12-11T07:36:18.886Z,15.88
2022-12-11T07:38:45.781Z,16.15
2022-12-11T07:41:13.901Z,15.88
2022-12-11T07:43:41.526Z,18.55
2022-12-11T07:46:14.234Z,18.38
2022-12-11T07:48:42.394Z,16.70
2022-12-11T07:51:33.233Z,18.55
2022-12-11T07:54:03.192Z,16.40
2022-12-11T07:56:30.598Z,17.05
2022-12-11T07:59:00.458Z,16.00
2022-12-11T08:01:28.319Z,16.67
2022-12-11T08:03:55.905Z,15.77
2022-12-11T08:06:28.147Z,16.50
2022-12-11T08:08:55.657Z,16.10
2022-12-11T08:11:22.395Z,14.13
2022-12-11T08:13:49.632Z,15.52
2022-12-11T08:16:17.595Z,15.43
2022-12-11T08:18:45.990Z,14.20
2022-12-11T08:21:18.691Z,15.10
2022-12-11T08:23:45.192Z,16.48
2022-12-11T08:26:15.102Z,16.13
2022-12-11T08:28:41.789Z,17.90
2022-12-11T08:31:10.500Z,17.10
2022-12-11T08:33:38.147Z,17.08
2022-12-11T08:36:07.081Z,18.48
2022-12-11T08:38:34.415Z,15.98
2022-12-11T08:41:21.405Z,15.32
2022-12-11T08:43:49.187Z,14.38
2022-12-11T08:46:15.848Z,14.90
2022-12-11T08:48:43.132Z,14.10
2022-12-11T08:51:13.413Z,13.45
2022-12-11T08:53:39.841Z,13.15
2022-12-11T08:56:09.579Z,12.00
2022-12-11T08:58:36.416Z,11.48
2022-12-11T09:01:14.736Z,11.00
2022-12-11T09:03:41.578Z,10.80
2022-12-11T09:06:10.592Z,10.30
2022-12-11T09:08:37.462Z,10.57
2022-12-11T09:11:09.883Z,11.35
2022-12-11T09:13:37.206Z,11.48
2022-12-11T09:16:09.387Z,10.95
2022-12-11T09:18:37.575Z,10.18
2022-12-11T09:21:09.694Z,10.75
2022-12-11T09:23:36.393Z,11.32
2022-12-11T09:26:12.035Z,10.75
2022-12-11T09:28:45.732Z,9.85
2022-12-11T09:31:19.079Z,10.02
2022-12-11T09:33:46.229Z,9.55
2022-12-11T09:36:12.976Z,9.93
2022-12-11T09:38:39.608Z,12.02
2022-12-11T09:41:37.019Z,10.50
2022-12-11T09:44:20.802Z,11.15
2022-12-11T09:46:48.954Z,12.27
2022-12-11T09:49:27.761Z,11.85
2022-12-11T09:52:03.673Z,11.45
2022-12-11T09:54:30.181Z,9.35
2022-12-11T09:57:18.587Z,10.43
2022-12-11T10:00:04.946Z,8.82
2022-12-11T10:02:47.746Z,9.27
2022-12-11T10:05:51.116Z,9.18
2022-12-11T10:08:31.365Z,8.73
2022-12-11T10:11:16.305Z,9.23
2022-12-11T10:14:01.599Z,10.15
2022-12-11T10:16:44.887Z,9.27
2022-12-11T10:19:21.996Z,9.93
2022-12-11T10:21:50.900Z,9.63
2022-12-11T10:27:39.756Z,10.38
2022-12-11T10:30:30.455Z,10.43
2022-12-11T10:33:11.193Z,9.90
2022-12-11T10:35:49.944Z,9.90
2022-12-11T10:38:26.248Z,9.88
2022-12-11T10:40:57.191Z,10.80
2022-12-11T10:43:48.086Z,11.35
2022-12-11T10:46:17.971Z,10.80
2022-12-11T10:48:56.041Z,11.10
2022-12-11T10:51:25.779Z,10.30
2022-12-11T10:53:55.504Z,10.73
2022-12-11T10:56:27.416Z,10.95
2022-12-11T10:58:56.151Z,10.20
2022-12-11T11:01:25.719Z,9.70
2022-12-11T11:04:13.683Z,9.73
2022-12-11T11:06:40.151Z,8.93
2022-12-11T11:09:35.289Z,9.63
2022-12-11T11:12:07.598Z,9.93
2022-12-11T11:14:34.607Z,10.10
2022-12-11T11:17:01.361Z,10.70
2022-12-11T11:19:32.170Z,10.68
2022-12-11T11:22:19.259Z,9.77
2022-12-11T11:24:58.983Z,9.98
2022-12-11T11:27:45.681Z,11.32
2022-12-11T11:30:22.724Z,11.07
2022-12-11T11:32:54.291Z,10.10
2022-12-11T11:35:26.569Z,10.73
2022-12-11T11:38:14.728Z,9.63
2022-12-11T11:41:08.807Z,10.27
2022-12-11T11:43:46.753Z,10.38
2022-12-11T11:46:33.379Z,10.27
2022-12-11T11:49:13.124Z,9.68
2022-12-11T11:52:02.744Z,10.63
2022-12-11T11:54:51.251Z,11.25
2022-12-11T11:57:24.753Z,10.77
2022-12-11T11:59:58.071Z,10.38
2022-12-11T12:02:24.709Z,10.23
2022-12-11T12:04:51.892Z,10.50
2022-12-11T12:07:32.102Z,11.23
2022-12-11T12:10:26.373Z,11.98
2022-12-11T12:13:44.453Z,10.50
2022-12-11T12:16:01.653Z,12.50
2022-12-11T12:18:43.011Z,13.32
2022-12-11T12:21:15.056Z,15.35
2022-12-11T12:24:25.757Z,20.80
2022-12-11T12:27:01.052Z,12.20
2022-12-11T12:30:03.641Z,11.48
2022-12-11T12:33:02.275Z,9.45
2022-12-11T12:35:42.339Z,9.63
2022-12-11T12:38:23.582Z,10.15
2022-12-11T12:41:02.095Z,11.63
2022-12-11T12:43:54.872Z,10.00
2022-12-11T12:47:00.058Z,10.57
2022-12-11T12:49:40.712Z,10.90
2022-12-11T12:52:15.427Z,13.60
2022-12-11T12:55:03.960Z,14.25
2022-12-11T12:57:32.152Z,10.32
2022-12-11T12:59:59.037Z,11.35
2022-12-11T13:02:26.213Z,13.10
2022-12-11T13:05:03.319Z,12.25
2022-12-11T13:07:31.631Z,10.88
2022-12-11T13:10:24.320Z,10.15
2022-12-11T13:12:50.843Z,11.52
2022-12-11T13:15:29.727Z,12.35
2022-12-11T13:17:56.418Z,11.57
2022-12-11T13:20:26.092Z,12.82
2022-12-11T13:23:17.132Z,11.27
2022-12-11T13:25:46.343Z,11.23
2022-12-11T13:28:47.083Z,10.68
2022-12-11T13:31:16.334Z,12.45
2022-12-11T13:33:48.522Z,13.27
2022-12-11T13:36:25.505Z,12.93
2022-12-11T13:39:00.466Z,20.98
2022-12-11T13:41:28.306Z,17.10
2022-12-11T13:43:56.938Z,14.80
2022-12-11T13:46:30.531Z,11.75
2022-12-11T13:49:00.892Z,12.32
2022-12-11T13:51:31.316Z,13.27
2022-12-11T13:54:17.295Z,13.95
2022-12-11T13:56:54.087Z,12.43
2022-12-11T13:59:24.988Z,13.85
2022-12-11T14:01:55.502Z,15.00
2022-12-11T14:04:22.913Z,13.52
2022-12-11T14:06:49.568Z,12.18
2022-12-11T14:09:22.464Z,13.65
2022-12-11T14:11:55.044Z,13.65
2022-12-11T14:14:43.230Z,12.77
2022-12-11T14:17:15.050Z,12.50
2022-12-11T14:19:48.400Z,10.85
2022-12-11T14:22:20.365Z,13.68
2022-12-11T14:24:55.447Z,14.32
2022-12-11T14:27:22.527Z,16.75
2022-12-11T14:29:49.268Z,12.43
2022-12-11T14:32:31.026Z,13.13
2022-12-11T14:37:26.413Z,14.13
2022-12-11T14:40:01.108Z,14.05
2022-12-11T14:42:32.379Z,16.08
2022-12-11T14:45:30.605Z,15.05
2022-12-11T14:47:58.398Z,16.05
2022-12-11T14:50:29.246Z,16.50
2022-12-11T14:53:02.139Z,16.58
2022-12-11T14:55:31.167Z,15.60
2022-12-11T14:58:00.467Z,15.13
2022-12-11T15:00:30.528Z,13.75
2022-12-11T15:02:58.552Z,16.40
2022-12-11T15:05:25.695Z,13.73
2022-12-11T15:07:58.139Z,14.73
2022-12-11T15:10:36.624Z,15.52
2022-12-11T15:13:07.868Z,14.40
2022-12-11T15:15:46.672Z,15.13
2022-12-11T15:18:24.504Z,15.80
2022-12-11T15:20:53.930Z,16.08
2022-12-11T15:23:20.832Z,16.67
2022-12-11T15:25:52.950Z,17.05
2022-12-11T15:28:36.230Z,15.38
2022-12-11T15:31:25.004Z,15.30
2022-12-11T15:33:51.527Z,17.85
2022-12-11T15:36:26.717Z,15.27
2022-12-11T15:38:53.312Z,16.35
2022-12-11T15:41:21.451Z,16.25
2022-12-11T15:43:48.039Z,15.27
2022-12-11T15:46:14.701Z,15.20
2022-12-11T15:48:41.188Z,15.25
2022-12-11T15:51:07.629Z,17.60
2022-12-11T15:53:34.064Z,16.85
2022-12-11T15:56:01.306Z,16.70
2022-12-11T15:58:28.673Z,17.95
2022-12-11T16:00:55.196Z,26.55
2022-12-11T16:03:23.009Z,19.08
2022-12-11T16:05:50.542Z,16.92
2022-12-11T16:08:20.776Z,17.42
2022-12-11T16:10:48.129Z,18.67
2022-12-11T16:13:14.869Z,19.70
2022-12-11T16:15:46.322Z,17.80
2022-12-11T16:18:18.890Z,19.60
2022-12-11T16:20:46.914Z,17.13
2022-12-11T16:23:14.627Z,19.80
2022-12-11T16:25:42.564Z,18.83
2022-12-11T16:28:11.130Z,18.95
2022-12-11T16:30:38.105Z,16.88
2022-12-11T16:33:12.071Z,19.02
2022-12-11T16:35:39.835Z,16.25
2022-12-11T16:38:07.628Z,16.05
2022-12-11T16:40:34.072Z,16.77
2022-12-11T16:43:00.580Z,15.73
2022-12-11T16:45:27.936Z,17.90
2022-12-11T16:47:54.831Z,16.17
2022-12-11T16:50:21.376Z,17.08
2022-12-11T16:52:47.874Z,18.63
2022-12-11T16:55:15.530Z,17.85
2022-12-11T16:57:42.178Z,18.92
2022-12-11T17:00:11.989Z,17.73
2022-12-11T17:02:38.544Z,17.15
2022-12-11T17:05:05.378Z,18.00
2022-12-11T17:07:32.576Z,16.45
2022-12-11T17:10:00.533Z,18.00
2022-12-11T17:12:27.956Z,15.82
2022-12-11T17:14:55.753Z,17.10
2022-12-11T17:17:22.266Z,16.13
2022-12-11T17:19:49.109Z,16.08
2022-12-11T17:22:15.586Z,22.05
2022-12-11T17:24:42.033Z,14.48
2022-12-11T17:27:08.477Z,13.45
2022-12-11T17:29:34.965Z,17.23
2022-12-11T17:32:03.095Z,15.77
2022-12-11T17:34:36.139Z,16.20
2022-12-11T17:37:04.988Z,13.95
2022-12-11T17:39:31.556Z,15.18
2022-12-11T17:41:57.987Z,16.20
2022-12-11T17:44:26.388Z,15.23
2022-12-11T17:46:53.007Z,13.10
2022-12-11T17:49:19.770Z,14.98
2022-12-11T17:51:47.767Z,15.57
2022-12-11T17:54:14.231Z,17.33
2022-12-11T17:56:41.097Z,18.80
2022-12-11T17:59:07.560Z,20.23
2022-12-11T18:01:34.512Z,18.15
2022-12-11T18:04:04.172Z,16.33
2022-12-11T18:06:31.446Z,17.75
2022-12-11T18:08:58.144Z,17.40
2022-12-11T18:11:24.690Z,17.73
2022-12-11T18:13:52.824Z,15.68
2022-12-11T18:16:32.453Z,16.90
2022-12-11T18:18:59.057Z,15.35
2022-12-11T18:21:29.032Z,14.80
2022-12-11T18:23:55.956Z,13.90
2022-12-11T18:26:23.047Z,14.85
2022-12-11T18:28:50.897Z,14.75
2022-12-11T18:31:18.543Z,15.93
2022-12-11T18:33:45.814Z,13.68
2022-12-11T18:36:14.263Z,12.75
2022-12-11T18:38:42.180Z,15.00
2022-12-11T18:41:10.732Z,14.65
2022-12-11T18:43:37.396Z,16.20
2022-12-11T18:46:08.476Z,13.38
2022-12-11T18:48:35.104Z,14.35
2022-12-11T18:51:11.072Z,14.15
2022-12-11T18:53:41.385Z,13.65
2022-12-11T18:56:10.307Z,14.82
2022-12-11T18:58:37.110Z,14.85
2022-12-11T19:01:14.030Z,13.98
2022-12-11T19:03:43.749Z,15.52
2022-12-11T19:06:13.464Z,15.02
2022-12-11T19:08:40.002Z,20.30
2022-12-11T19:11:06.856Z,14.90
2022-12-11T19:13:33.955Z,15.73
2022-12-11T19:16:00.943Z,15.45
2022-12-11T19:18:27.762Z,14.52
2022-12-11T19:21:03.272Z,16.25
2022-12-11T19:23:33.115Z,16.95
2022-12-11T19:25:59.491Z,17.85
2022-12-11T19:28:25.894Z,17.75
2022-12-11T19:30:52.361Z,16.15
2022-12-11T19:33:18.858Z,15.57
2022-12-11T19:35:45.313Z,15.63
2022-12-11T19:38:12.814Z,16.45
2022-12-11T19:40:43.679Z,18.50
2022-12-11T19:43:10.731Z,17.67
2022-12-11T19:45:37.417Z,18.45
2022-12-11T19:48:04.201Z,17.92
2022-12-11T19:50:30.737Z,18.40
2022-12-11T19:52:57.241Z,18.88
2022-12-11T19:55:23.714Z,18.00
2022-12-11T19:57:50.168Z,18.63
2022-12-11T20:00:16.930Z,17.02
2022-12-11T20:02:43.632Z,18.08
2022-12-11T20:05:11.194Z,17.30
2022-12-11T20:07:38.681Z,21.73
2022-12-11T20:10:05.695Z,15.40
2022-12-11T20:12:32.607Z,18.23
2022-12-11T20:14:59.068Z,18.27
2022-12-11T20:17:25.658Z,19.40
2022-12-11T20:19:52.171Z,16.15
2022-12-11T20:22:18.644Z,17.02
2022-12-11T20:24:45.080Z,18.98
2022-12-11T20:27:12.419Z,18.65
2022-12-11T20:29:39.182Z,16.85
2022-12-11T20:32:05.651Z,17.35
2022-12-11T20:34:32.118Z,19.63
2022-12-11T20:37:00.128Z,17.60
2022-12-11T20:39:27.059Z,16.15
2022-12-11T20:41:53.553Z,18.45
2022-12-11T20:44:20.188Z,19.67
2022-12-11T20:46:46.603Z,17.52
2022-12-11T20:49:13.291Z,18.38
2022-12-11T20:51:40.751Z,17.63
2022-12-11T20:54:07.228Z,16.38
2022-12-11T20:56:33.683Z,16.75
2022-12-11T20:59:00.802Z,18.23
2022-12-11T21:01:30.623Z,19.85
2022-12-11T21:03:57.891Z,18.13
2022-12-11T21:06:33.599Z,19.13
2022-12-11T21:09:03.178Z,20.00
2022-12-11T21:11:29.699Z,21.77
2022-12-11T21:13:56.309Z,21.90
2022-12-11T21:16:23.163Z,23.10
2022-12-11T21:18:49.767Z,20.83
2022-12-11T21:21:16.875Z,21.42
2022-12-11T21:23:43.910Z,20.08
2022-12-11T21:26:10.640Z,21.98
2022-12-11T21:28:37.099Z,20.33
2022-12-11T21:31:06.563Z,20.10
2022-12-11T21:33:33.718Z,19.30
2022-12-11T21:36:01.020Z,19.65
2022-12-11T21:38:28.141Z,19.85
2022-12-11T21:40:55.368Z,19.42
2022-12-11T21:43:22.560Z,19.27
2022-12-11T21:46:04.895Z,20.17
2022-12-11T21:48:31.768Z,18.88
2022-12-11T21:51:11.867Z,18.23
2022-12-11T21:53:38.888Z,17.92
2022-12-11T21:56:17.920Z,18.80
2022-12-11T21:58:45.141Z,18.33
2022-12-11T22:01:18.737Z,18.35
2022-12-11T22:03:45.612Z,17.70
2022-12-11T22:06:12.494Z,20.80
2022-12-11T22:08:39.092Z,18.35
2022-12-11T22:11:05.946Z,20.48
2022-12-11T22:13:32.517Z,17.52
2022-12-11T22:15:59.009Z,19.90
2022-12-11T22:18:28.414Z,18.67
2022-12-11T22:20:54.887Z,18.38
2022-12-11T22:23:22.046Z,17.77
2022-12-11T22:25:51.375Z,17.45
2022-12-11T22:28:19.065Z,17.27
2022-12-11T22:30:46.102Z,18.05
2022-12-11T22:33:12.628Z,16.92
2022-12-11T22:35:39.193Z,15.82
2022-12-11T22:38:06.549Z,17.30
2022-12-11T22:40:33.393Z,16.67
2022-12-11T22:42:59.957Z,16.25
2022-12-11T22:45:26.673Z,16.65
2022-12-11T22:47:53.178Z,16.40
2022-12-11T22:50:19.650Z,16.45
2022-12-11T22:52:46.088Z,16.33
2022-12-11T22:55:12.804Z,17.08
2022-12-11T22:57:39.512Z,17.55
2022-12-11T23:00:11.032Z,17.15
2022-12-11T23:02:38.173Z,17.80
2022-12-11T23:05:05.406Z,14.68
2022-12-11T23:07:32.685Z,18.02
2022-12-11T23:09:59.427Z,17.45
2022-12-11T23:12:25.823Z,15.10
2022-12-11T23:14:52.371Z,18.75
2022-12-11T23:17:18.839Z,16.65
2022-12-11T23:19:46.076Z,19.17
2022-12-11T23:22:13.260Z,16.02
2022-12-11T23:24:40.112Z,16.42
2022-12-11T23:27:06.895Z,17.50
2022-12-11T23:29:33.606Z,15.57
2022-12-11T23:32:00.078Z,15.30
2022-12-11T23:34:26.627Z,15.85
2022-12-11T23:36:53.169Z,18.42
2022-12-11T23:39:19.562Z,16.35
2022-12-11T23:41:46.322Z,14.13
2022-12-11T23:44:12.831Z,14.07
2022-12-11T23:46:39.332Z,15.75
2022-12-11T23:49:05.859Z,15.05
2022-12-11T23:51:32.297Z,15.02
2022-12-11T23:53:58.746Z,17.45
2022-12-11T23:56:28.275Z,15.80
2022-12-11T23:58:56.395Z,15.40
